Time;durP1;ratioP1;P1;durP2;ratioP2;P2;SDS_P1;SDS_P2;PMS_P1;PMS_P2;Temp;Humidity;BMP_temperature;BMP_pressure;BME280_temperature;BME280_humidity;BME280_pressure;Samples;Min_cycle;Max_cycle;Signal;HPM_P1;HPM_P2
2023/12/31 00:02:17;;;;;;;0.90;0.90;;;9.40;99.90;;;;;;5053193;28;20181;-79
2023/12/31 00:04:43;;;;;;;1.47;1.37;;;9.60;99.90;;;;;;5035986;28;20240;-80
2023/12/31 00:07:09;;;;;;;1.13;1.03;;;9.70;99.90;;;;;;5052455;28;20268;-80
2023/12/31 00:09:35;;;;;;;1.23;1.07;;;9.50;99.90;;;;;;5052266;28;20575;-81
2023/12/31 00:12:01;;;;;;;1.60;1.27;;;9.50;99.90;;;;;;5051775;28;20198;-79
2023/12/31 00:14:27;;;;;;;1.50;1.40;;;9.60;99.90;;;;;;5053950;28;20236;-79
2023/12/31 00:16:52;;;;;;;0.93;0.93;;;9.60;99.90;;;;;;5035539;28;20221;-80
2023/12/31 00:19:18;;;;;;;0.63;0.63;;;9.70;99.90;;;;;;5018968;28;20281;-80
2023/12/31 00:21:44;;;;;;;1.53;1.27;;;9.70;99.90;;;;;;5035588;28;20301;-80
2023/12/31 00:24:10;;;;;;;2.80;1.63;;;9.80;99.90;;;;;;5035023;28;20229;-79
2023/12/31 00:26:36;;;;;;;1.13;1.13;;;9.90;99.90;;;;;;5052238;28;20183;-79
2023/12/31 00:29:01;;;;;;;1.53;1.43;;;9.70;99.90;;;;;;5035231;28;20275;-79
2023/12/31 00:31:27;;;;;;;0.77;0.77;;;9.70;99.90;;;;;;5018937;28;20218;-80
2023/12/31 00:33:56;;;;;;;0.63;0.53;;;9.80;99.90;;;;;;5035236;28;20649;-80
2023/12/31 00:36:26;;;;;;;1.27;1.20;;;9.70;99.90;;;;;;5018802;28;20222;-80
2023/12/31 00:38:53;;;;;;;2.10;1.00;;;9.80;99.90;;;;;;5051294;28;20241;-80
2023/12/31 00:41:19;;;;;;;1.87;1.30;;;9.90;99.90;;;;;;5052165;28;20528;-79
2023/12/31 00:43:45;;;;;;;1.00;0.77;;;9.80;99.90;;;;;;5051681;28;20297;-80
2023/12/31 00:46:14;;;;;;;1.90;1.07;;;9.90;99.90;;;;;;5034963;28;20233;-80
2023/12/31 00:48:39;;;;;;;3.00;1.67;;;9.80;99.90;;;;;;5018647;28;20252;-80
2023/12/31 00:51:05;;;;;;;0.80;0.67;;;9.70;99.90;;;;;;5052548;28;20263;-80
2023/12/31 00:53:32;;;;;;;0.67;0.67;;;9.70;99.90;;;;;;5051905;28;20182;-81
2023/12/31 00:55:58;;;;;;;0.93;0.93;;;9.80;99.90;;;;;;5051176;28;20705;-79
2023/12/31 00:58:23;;;;;;;1.33;1.23;;;9.60;99.90;;;;;;5051246;28;20233;-80
2023/12/31 01:00:49;;;;;;;1.63;0.90;;;9.60;99.90;;;;;;5034847;28;20214;-80
2023/12/31 01:03:15;;;;;;;1.83;0.83;;;9.60;99.90;;;;;;5051499;28;20225;-80
2023/12/31 01:05:41;;;;;;;1.00;0.87;;;9.50;99.90;;;;;;5018272;28;20218;-81
2023/12/31 01:08:08;;;;;;;0.77;0.67;;;9.60;99.90;;;;;;5034402;28;20214;-79
2023/12/31 01:10:34;;;;;;;0.63;0.63;;;9.40;99.90;;;;;;5052198;28;20217;-80
2023/12/31 01:12:59;;;;;;;1.27;1.03;;;9.60;99.90;;;;;;5050946;28;20218;-81
2023/12/31 01:15:25;;;;;;;0.93;0.67;;;9.40;99.90;;;;;;5051277;28;20222;-79
2023/12/31 01:17:51;;;;;;;1.23;0.97;;;9.40;99.90;;;;;;5050773;28;20182;-81
2023/12/31 01:20:16;;;;;;;0.43;0.43;;;9.30;99.90;;;;;;5034616;28;20547;-80
2023/12/31 01:22:42;;;;;;;1.13;0.53;;;9.30;99.90;;;;;;5050749;28;20237;-81
2023/12/31 01:25:08;;;;;;;0.37;0.37;;;9.50;99.90;;;;;;5050560;28;20268;-80
2023/12/31 01:27:34;;;;;;;0.37;0.37;;;9.50;99.90;;;;;;5050580;28;20217;-80
2023/12/31 01:30:00;;;;;;;0.80;0.80;;;9.40;99.90;;;;;;5050530;28;20182;-81
2023/12/31 01:32:26;;;;;;;0.63;0.63;;;9.40;99.90;;;;;;5050940;28;20178;-80
2023/12/31 01:34:55;;;;;;;1.57;1.03;;;9.40;99.90;;;;;;5051607;28;20249;-79
2023/12/31 01:37:20;;;;;;;0.60;0.60;;;9.40;99.90;;;;;;5033933;28;20214;-80
2023/12/31 01:39:46;;;;;;;4.33;3.77;;;9.30;99.90;;;;;;5033945;28;20240;-80
2023/12/31 01:42:12;;;;;;;1.90;1.53;;;9.30;99.90;;;;;;5051443;28;20237;-79
2023/12/31 01:44:38;;;;;;;1.10;1.00;;;9.10;99.90;;;;;;5034897;28;20217;-80
2023/12/31 01:47:05;;;;;;;1.10;1.00;;;9.40;99.90;;;;;;5051685;28;20718;-79
2023/12/31 01:49:33;;;;;;;1.30;1.10;;;9.30;99.90;;;;;;5033939;28;20300;-80
2023/12/31 01:51:59;;;;;;;0.20;0.20;;;9.40;99.90;;;;;;5051336;28;20734;-81
2023/12/31 01:54:26;;;;;;;0.80;0.60;;;9.30;99.90;;;;;;5034115;28;20214;-80
2023/12/31 01:56:52;;;;;;;0.53;0.53;;;9.40;99.90;;;;;;5033577;28;20698;-81
2023/12/31 01:59:19;;;;;;;0.40;0.40;;;9.50;99.90;;;;;;5050925;28;20181;-80
2023/12/31 02:01:50;;;;;;;0.70;0.70;;;9.40;99.90;;;;;;5017231;28;20676;-80
2023/12/31 02:04:19;;;;;;;0.40;0.40;;;9.30;99.90;;;;;;5050482;28;20233;-80
2023/12/31 02:06:45;;;;;;;0.77;0.67;;;9.30;99.90;;;;;;5033718;28;20225;-80
2023/12/31 02:09:10;;;;;;;0.70;0.70;;;9.30;99.90;;;;;;5050721;28;20681;-80
2023/12/31 02:11:37;;;;;;;0.77;0.77;;;9.40;99.90;;;;;;5051777;28;20632;-80
2023/12/31 02:14:03;;;;;;;2.20;0.53;;;9.30;99.90;;;;;;5033694;28;20214;-79
2023/12/31 02:16:28;;;;;;;0.87;0.87;;;9.30;99.90;;;;;;5033913;28;20222;-80
2023/12/31 02:18:54;;;;;;;2.03;0.73;;;9.50;99.90;;;;;;5051773;28;20214;-80
2023/12/31 02:21:20;;;;;;;0.50;0.50;;;9.40;99.90;;;;;;5033545;28;20727;-80
2023/12/31 02:23:46;;;;;;;0.40;0.40;;;9.30;99.90;;;;;;5050226;28;20253;-80
2023/12/31 02:26:12;;;;;;;0.40;0.40;;;9.40;99.90;;;;;;5051791;28;20226;-81
2023/12/31 02:28:39;;;;;;;0.90;0.90;;;9.40;99.90;;;;;;5050363;28;20233;-80
2023/12/31 02:31:05;;;;;;;0.40;0.40;;;9.10;99.90;;;;;;5050046;28;20222;-80
2023/12/31 02:33:31;;;;;;;0.57;0.57;;;9.30;99.90;;;;;;5051081;28;20252;-80
2023/12/31 02:35:57;;;;;;;0.67;0.60;;;9.20;99.90;;;;;;5033944;28;20256;-80
2023/12/31 02:38:23;;;;;;;1.00;1.00;;;9.20;99.90;;;;;;5050218;28;20634;-80
2023/12/31 02:40:49;;;;;;;1.00;0.47;;;9.20;99.90;;;;;;5050934;28;20230;-81
2023/12/31 02:43:14;;;;;;;0.20;0.20;;;9.10;99.90;;;;;;5051240;28;20218;-81
2023/12/31 02:45:40;;;;;;;3.00;0.73;;;9.10;99.90;;;;;;5019175;28;20228;-80
2023/12/31 02:48:06;;;;;;;0.73;0.60;;;8.90;99.90;;;;;;5037122;28;20281;-80
2023/12/31 02:50:32;;;;;;;1.23;1.13;;;8.80;99.90;;;;;;5037398;28;20170;-80
2023/12/31 02:52:58;;;;;;;0.83;0.67;;;8.80;99.90;;;;;;5020709;28;20263;-79
2023/12/31 02:55:24;;;;;;;0.93;0.73;;;8.80;99.90;;;;;;5037148;28;20293;-81
2023/12/31 02:57:49;;;;;;;0.30;0.30;;;9.00;99.90;;;;;;5053529;28;20222;-80
2023/12/31 03:00:16;;;;;;;0.20;0.20;;;8.90;99.90;;;;;;5054491;28;20222;-80
2023/12/31 03:02:41;;;;;;;1.23;0.60;;;8.90;99.90;;;;;;5037561;28;20186;-80
2023/12/31 03:05:08;;;;;;;0.63;0.63;;;8.90;99.90;;;;;;5020298;28;20233;-81
2023/12/31 03:07:34;;;;;;;0.87;0.50;;;9.00;99.90;;;;;;5054750;28;20308;-81
2023/12/31 03:10:00;;;;;;;0.30;0.30;;;8.90;99.90;;;;;;5036966;28;20222;-81
2023/12/31 03:12:25;;;;;;;0.70;0.70;;;9.00;99.90;;;;;;5053108;28;20224;-80
2023/12/31 03:14:51;;;;;;;0.30;0.30;;;9.00;99.90;;;;;;5036488;28;20576;-80
2023/12/31 03:17:17;;;;;;;0.30;0.30;;;8.90;99.90;;;;;;5053839;28;20182;-80
2023/12/31 03:19:42;;;;;;;0.30;0.30;;;9.00;99.90;;;;;;5036831;28;20656;-80
2023/12/31 03:22:08;;;;;;;0.67;0.67;;;8.80;99.90;;;;;;5052799;28;20695;-80
2023/12/31 03:24:34;;;;;;;0.57;0.37;;;8.90;99.90;;;;;;5054067;28;20673;-80
2023/12/31 03:27:00;;;;;;;0.20;0.20;;;8.90;99.90;;;;;;5036341;28;20221;-81
2023/12/31 03:29:26;;;;;;;0.70;0.70;;;8.80;99.90;;;;;;5037144;28;20186;-81
2023/12/31 03:31:58;;;;;;;0.40;0.40;;;8.80;99.90;;;;;;5052677;28;20693;-89
2023/12/31 03:34:23;;;;;;;0.37;0.37;;;9.00;99.90;;;;;;5054062;28;20233;-89
2023/12/31 03:36:49;;;;;;;0.23;0.23;;;8.80;99.90;;;;;;5037977;28;20214;-89
2023/12/31 03:39:15;;;;;;;0.40;0.40;;;8.90;99.90;;;;;;5034042;28;20234;-88
2023/12/31 03:41:41;;;;;;;0.23;0.23;;;8.90;99.90;;;;;;5036178;28;20186;-90
2023/12/31 03:44:07;;;;;;;0.40;0.40;;;8.80;99.90;;;;;;5034306;28;20265;-89
2023/12/31 03:46:34;;;;;;;0.77;0.77;;;8.90;99.90;;;;;;5017960;28;20605;-90
2023/12/31 03:48:59;;;;;;;0.37;0.37;;;8.90;99.90;;;;;;5034582;28;20221;-89
2023/12/31 03:51:25;;;;;;;0.50;0.50;;;9.00;99.90;;;;;;5017432;28;20210;-89
2023/12/31 03:53:51;;;;;;;1.27;0.40;;;9.10;99.90;;;;;;5051275;28;20175;-89
2023/12/31 03:56:17;;;;;;;0.40;0.40;;;9.10;99.90;;;;;;5034318;28;20174;-90
2023/12/31 03:58:43;;;;;;;0.40;0.30;;;9.00;99.90;;;;;;5033730;28;20215;-89
2023/12/31 04:01:08;;;;;;;2.20;0.40;;;9.10;99.90;;;;;;5017772;28;20222;-88
2023/12/31 04:03:34;;;;;;;0.43;0.43;;;9.00;99.90;;;;;;5034337;28;20218;-91
2023/12/31 04:06:00;;;;;;;1.80;1.30;;;9.10;99.90;;;;;;5033394;28;20571;-88
2023/12/31 04:08:26;;;;;;;0.20;0.20;;;9.20;99.90;;;;;;5018041;28;20182;-89
2023/12/31 04:10:51;;;;;;;0.40;0.40;;;9.20;99.90;;;;;;5017310;28;20214;-90
2023/12/31 04:13:18;;;;;;;0.57;0.57;;;9.10;99.90;;;;;;5017538;28;20218;-88
2023/12/31 04:15:44;;;;;;;0.17;0.17;;;9.30;99.90;;;;;;5033821;28;20646;-89
2023/12/31 04:18:10;;;;;;;1.10;0.93;;;9.20;99.90;;;;;;5017369;28;20211;-90
2023/12/31 04:20:36;;;;;;;1.20;1.10;;;9.10;99.90;;;;;;5035009;28;20179;-91
2023/12/31 04:23:03;;;;;;;1.03;1.03;;;9.10;99.90;;;;;;5017057;28;20696;-89
2023/12/31 04:25:28;;;;;;;2.10;0.73;;;9.20;99.90;;;;;;5032757;28;20237;-88
2023/12/31 04:27:54;;;;;;;0.50;0.50;;;9.20;99.90;;;;;;5033476;28;20210;-91
2023/12/31 04:30:20;;;;;;;0.20;0.20;;;9.30;99.90;;;;;;5033007;28;20663;-90
2023/12/31 04:32:46;;;;;;;0.33;0.33;;;9.20;99.90;;;;;;5033857;28;20171;-88
2023/12/31 04:35:12;;;;;;;0.30;0.30;;;9.20;99.90;;;;;;5034680;28;20183;-91
2023/12/31 04:37:37;;;;;;;0.37;0.37;;;9.10;99.90;;;;;;5033786;28;20241;-90
2023/12/31 04:40:06;;;;;;;0.57;0.40;;;9.20;99.90;;;;;;5033128;28;20246;-89
2023/12/31 04:42:31;;;;;;;0.90;0.90;;;9.10;99.90;;;;;;5017222;28;20226;-89
2023/12/31 04:44:59;;;;;;;0.50;0.50;;;9.20;99.90;;;;;;5016816;28;20218;-90
2023/12/31 04:47:25;;;;;;;0.53;0.53;;;9.10;99.90;;;;;;5034213;28;20178;-89
2023/12/31 04:49:51;;;;;;;0.30;0.30;;;9.30;99.90;;;;;;5034430;28;20632;-90
2023/12/31 04:52:17;;;;;;;0.40;0.40;;;9.20;99.90;;;;;;5016545;28;20282;-89
2023/12/31 04:54:42;;;;;;;0.47;0.40;;;9.20;99.90;;;;;;5016917;28;20218;-89
2023/12/31 04:57:08;;;;;;;0.53;0.53;;;9.20;99.90;;;;;;5032307;28;20218;-90
2023/12/31 04:59:34;;;;;;;0.50;0.47;;;9.20;99.90;;;;;;5033643;28;20178;-88
2023/12/31 05:02:00;;;;;;;0.20;0.20;;;9.30;99.90;;;;;;5034486;28;20297;-90
2023/12/31 05:04:26;;;;;;;0.57;0.40;;;9.30;99.90;;;;;;4999978;28;20234;-89
2023/12/31 05:06:51;;;;;;;0.60;0.60;;;9.30;99.90;;;;;;5048765;28;20219;-90
2023/12/31 05:09:17;;;;;;;0.20;0.20;;;9.20;99.90;;;;;;5015486;28;20218;-91
2023/12/31 05:11:44;;;;;;;0.77;0.77;;;9.30;99.90;;;;;;5033081;28;20167;-90
2023/12/31 05:14:10;;;;;;;0.20;0.20;;;9.30;99.90;;;;;;5016222;28;20199;-89
2023/12/31 05:16:36;;;;;;;0.73;0.73;;;9.30;99.90;;;;;;5032137;28;20225;-89
2023/12/31 05:19:01;;;;;;;0.63;0.63;;;9.30;99.90;;;;;;5016133;28;20230;-90
2023/12/31 05:21:27;;;;;;;0.50;0.50;;;9.30;99.90;;;;;;5032721;28;20222;-89
2023/12/31 05:23:53;;;;;;;1.20;0.53;;;9.30;99.90;;;;;;5032841;28;20201;-91
2023/12/31 05:26:19;;;;;;;0.43;0.43;;;9.30;99.90;;;;;;5034808;28;20210;-90
2023/12/31 05:28:47;;;;;;;1.13;0.60;;;9.30;99.90;;;;;;5033780;28;20252;-90
2023/12/31 05:31:13;;;;;;;0.50;0.50;;;9.30;99.90;;;;;;5033476;28;20262;-87
2023/12/31 05:33:41;;;;;;;0.47;0.47;;;9.30;99.90;;;;;;5032780;28;20223;-89
2023/12/31 05:36:07;;;;;;;0.70;0.70;;;9.30;99.90;;;;;;5033388;28;20249;-91
2023/12/31 05:38:36;;;;;;;0.67;0.67;;;9.30;99.90;;;;;;5035066;28;20178;-89
2023/12/31 05:41:01;;;;;;;0.27;0.27;;;9.30;99.90;;;;;;5052095;28;20752;-90
2023/12/31 05:43:28;;;;;;;0.40;0.40;;;9.30;99.90;;;;;;5035179;28;20271;-90
2023/12/31 05:45:54;;;;;;;0.47;0.47;;;9.30;99.90;;;;;;5035573;28;20253;-90
2023/12/31 05:48:21;;;;;;;0.33;0.33;;;9.20;99.90;;;;;;5052550;28;20218;-90
2023/12/31 05:50:47;;;;;;;0.27;0.27;;;9.30;99.90;;;;;;5035229;28;20235;-88
2023/12/31 05:53:13;;;;;;;1.93;0.50;;;9.30;99.90;;;;;;5035933;28;20200;-88
2023/12/31 05:55:39;;;;;;;0.60;0.57;;;9.30;99.90;;;;;;5052659;28;20213;-89
2023/12/31 05:58:05;;;;;;;1.93;0.53;;;9.40;99.90;;;;;;5052781;28;20218;-89
2023/12/31 06:00:31;;;;;;;0.40;0.40;;;9.30;99.90;;;;;;5034988;28;20224;-89
2023/12/31 06:02:56;;;;;;;0.40;0.40;;;9.40;99.90;;;;;;5035280;28;20204;-90
2023/12/31 06:05:22;;;;;;;0.80;0.80;;;9.30;99.90;;;;;;5036331;28;20354;-90
2023/12/31 06:07:48;;;;;;;0.80;0.80;;;9.30;99.90;;;;;;5035459;28;20244;-90
2023/12/31 06:10:14;;;;;;;0.37;0.37;;;9.40;99.90;;;;;;5034758;28;20217;-88
2023/12/31 06:12:40;;;;;;;0.33;0.33;;;9.40;99.90;;;;;;5034936;28;20293;-90
2023/12/31 06:15:06;;;;;;;1.10;0.50;;;9.50;99.90;;;;;;5052256;28;20218;-90
2023/12/31 06:17:35;;;;;;;0.40;0.40;;;9.50;99.90;;;;;;5035285;28;20175;-89
2023/12/31 06:20:02;;;;;;;0.60;0.60;;;9.50;99.90;;;;;;5037928;28;20232;-88
2023/12/31 06:22:28;;;;;;;0.37;0.37;;;9.40;99.90;;;;;;5038916;28;20221;-89
2023/12/31 06:24:54;;;;;;;0.97;0.40;;;9.40;99.90;;;;;;5038647;28;20320;-89
2023/12/31 06:27:20;;;;;;;0.30;0.30;;;9.40;99.90;;;;;;5038667;28;20235;-89
2023/12/31 06:29:46;;;;;;;1.87;0.97;;;9.40;99.90;;;;;;5038921;28;20587;-88
2023/12/31 06:32:12;;;;;;;0.37;0.30;;;9.50;99.90;;;;;;5039043;28;20174;-89
2023/12/31 06:34:37;;;;;;;0.30;0.30;;;9.50;99.90;;;;;;5038329;28;20248;-88
2023/12/31 06:37:03;;;;;;;0.37;0.37;;;9.50;99.90;;;;;;5055522;28;20293;-89
2023/12/31 06:39:29;;;;;;;0.50;0.43;;;9.50;99.90;;;;;;5038037;28;20234;-91
2023/12/31 06:41:55;;;;;;;1.07;0.67;;;9.60;99.90;;;;;;5054738;28;20515;-91
2023/12/31 06:44:21;;;;;;;1.10;0.70;;;9.60;99.90;;;;;;5038147;28;20213;-89
2023/12/31 06:46:47;;;;;;;0.33;0.33;;;9.50;99.90;;;;;;5054597;28;20222;-88
2023/12/31 06:49:13;;;;;;;0.90;0.83;;;9.60;99.90;;;;;;5038478;28;20222;-89
2023/12/31 06:51:39;;;;;;;0.60;0.60;;;9.60;99.90;;;;;;5038778;28;20228;-91
2023/12/31 06:54:05;;;;;;;0.87;0.47;;;9.60;99.90;;;;;;5055684;28;20287;-89
2023/12/31 06:56:31;;;;;;;0.50;0.50;;;9.70;99.90;;;;;;5055769;28;20178;-90
2023/12/31 06:58:57;;;;;;;0.67;0.67;;;9.60;99.90;;;;;;5054846;28;20271;-88
2023/12/31 07:01:22;;;;;;;0.30;0.30;;;9.60;99.90;;;;;;5038188;28;20637;-91
2023/12/31 07:03:48;;;;;;;1.40;1.27;;;9.60;99.90;;;;;;5021463;28;20217;-86
2023/12/31 07:06:14;;;;;;;6.93;1.53;;;9.60;99.90;;;;;;5037770;28;20230;-88
2023/12/31 07:08:40;;;;;;;1.23;0.80;;;9.60;99.90;;;;;;5038432;28;20171;-88
2023/12/31 07:11:06;;;;;;;0.20;0.20;;;9.60;99.90;;;;;;5037682;28;20625;-87
2023/12/31 07:13:31;;;;;;;0.40;0.20;;;9.50;99.90;;;;;;5037803;28;20297;-88
2023/12/31 07:15:58;;;;;;;0.97;0.77;;;9.60;99.90;;;;;;5038054;28;20653;-91
2023/12/31 07:18:24;;;;;;;0.40;0.30;;;9.60;99.90;;;;;;5037704;28;20260;-88
2023/12/31 07:20:50;;;;;;;0.83;0.83;;;9.60;99.90;;;;;;5037611;28;20182;-88
2023/12/31 07:23:16;;;;;;;0.30;0.30;;;9.60;99.90;;;;;;5038096;28;20194;-88
2023/12/31 07:25:41;;;;;;;0.53;0.53;;;9.60;99.90;;;;;;5037645;28;20262;-88
2023/12/31 07:28:07;;;;;;;1.17;1.17;;;9.60;99.90;;;;;;5020877;28;20676;-88
2023/12/31 07:30:33;;;;;;;2.90;0.63;;;9.60;99.90;;;;;;5036429;28;20214;-88
2023/12/31 07:32:59;;;;;;;2.03;1.10;;;9.60;99.90;;;;;;5037668;28;20595;-89
2023/12/31 07:35:25;;;;;;;0.20;0.20;;;9.60;99.90;;;;;;5038588;28;20182;-89
2023/12/31 07:37:52;;;;;;;0.30;0.30;;;9.60;99.90;;;;;;5054449;28;20225;-88
2023/12/31 07:40:17;;;;;;;0.67;0.67;;;9.60;99.90;;;;;;5037447;28;20234;-89
2023/12/31 07:42:44;;;;;;;0.20;0.20;;;9.70;99.90;;;;;;5053919;28;20771;-88
2023/12/31 07:45:10;;;;;;;0.30;0.30;;;9.70;99.90;;;;;;5037337;28;20686;-90
2023/12/31 07:47:38;;;;;;;3.93;1.23;;;9.70;99.90;;;;;;5054463;28;20191;-90
2023/12/31 07:50:05;;;;;;;0.30;0.30;;;9.70;99.90;;;;;;5037712;28;20683;-88
2023/12/31 07:52:31;;;;;;;0.40;0.40;;;9.70;99.90;;;;;;5037202;28;20694;-90
2023/12/31 07:54:56;;;;;;;0.20;0.20;;;9.80;99.90;;;;;;5037186;28;20316;-87
2023/12/31 07:57:22;;;;;;;0.27;0.27;;;9.80;99.90;;;;;;5020220;28;20217;-87
2023/12/31 07:59:48;;;;;;;0.70;0.70;;;9.70;99.90;;;;;;5036938;28;20173;-90
2023/12/31 08:02:14;;;;;;;0.97;0.97;;;9.70;99.90;;;;;;5054066;28;20170;-90
2023/12/31 08:04:43;;;;;;;2.30;1.07;;;9.70;99.90;;;;;;5021066;28;20224;-92
2023/12/31 08:07:09;;;;;;;1.37;0.90;;;9.70;99.90;;;;;;5037554;28;20221;-91
2023/12/31 08:09:35;;;;;;;0.37;0.30;;;9.70;99.90;;;;;;5054162;28;20277;-89
2023/12/31 08:12:00;;;;;;;0.33;0.33;;;9.60;99.90;;;;;;5037343;28;20175;-91
2023/12/31 08:14:26;;;;;;;0.80;0.80;;;9.60;99.90;;;;;;5037695;28;20206;-89
2023/12/31 08:16:52;;;;;;;0.40;0.40;;;9.70;99.90;;;;;;5020481;28;20222;-92
2023/12/31 08:19:18;;;;;;;0.67;0.67;;;9.70;99.90;;;;;;5037036;28;20280;-91
2023/12/31 08:21:45;;;;;;;0.20;0.20;;;9.70;99.90;;;;;;5053164;28;20270;-89
2023/12/31 08:24:19;;;;;;;0.30;0.30;;;9.80;99.90;;;;;;5036530;28;20285;-88
2023/12/31 08:26:47;;;;;;;0.40;0.40;;;9.80;99.90;;;;;;5037245;28;20181;-92
2023/12/31 08:29:13;;;;;;;1.50;0.87;;;9.80;99.90;;;;;;5037357;28;20173;-91
2023/12/31 08:31:40;;;;;;;0.20;0.20;;;9.90;99.90;;;;;;5037191;28;20218;-90
2023/12/31 08:34:06;;;;;;;1.20;1.10;;;9.90;99.90;;;;;;5037895;28;20210;-93
2023/12/31 08:36:34;;;;;;;0.60;0.60;;;9.90;99.90;;;;;;5022381;28;20230;-92
2023/12/31 08:39:00;;;;;;;0.37;0.30;;;9.90;99.90;;;;;;5036701;28;20257;-90
2023/12/31 08:41:27;;;;;;;0.33;0.33;;;9.90;99.90;;;;;;5037260;28;20285;-88
2023/12/31 08:43:53;;;;;;;0.40;0.40;;;9.90;99.90;;;;;;5035749;28;20301;-92
2023/12/31 08:46:19;;;;;;;0.67;0.67;;;9.90;99.90;;;;;;5020321;28;20305;-92
2023/12/31 08:48:45;;;;;;;0.40;0.40;;;9.90;99.90;;;;;;5019988;28;20218;-89
2023/12/31 08:51:10;;;;;;;2.93;0.50;;;9.90;99.90;;;;;;5036746;28;20213;-91
2023/12/31 08:53:37;;;;;;;1.53;1.53;;;9.90;99.90;;;;;;5037099;28;20174;-92
2023/12/31 08:56:06;;;;;;;0.37;0.37;;;10.00;99.90;;;;;;5037412;28;20313;-89
2023/12/31 08:58:32;;;;;;;0.80;0.80;;;9.90;99.90;;;;;;5053268;28;20273;-91
2023/12/31 09:00:58;;;;;;;0.30;0.30;;;10.00;99.90;;;;;;5036378;28;20237;-90
2023/12/31 09:03:24;;;;;;;1.47;1.40;;;10.00;99.90;;;;;;5037595;28;20719;-89
2023/12/31 09:05:49;;;;;;;0.50;0.50;;;10.00;99.90;;;;;;5043654;28;20239;-91
2023/12/31 09:08:16;;;;;;;0.60;0.60;;;10.10;99.90;;;;;;5056128;28;20198;-91
2023/12/31 09:10:42;;;;;;;0.20;0.20;;;10.10;99.90;;;;;;5036934;28;20222;-90
2023/12/31 09:13:14;;;;;;;1.93;1.13;;;10.00;99.90;;;;;;5036043;28;20214;-90
2023/12/31 09:15:42;;;;;;;0.43;0.43;;;10.10;99.90;;;;;;5036063;28;20248;-93
2023/12/31 09:18:13;;;;;;;1.07;0.50;;;10.00;99.90;;;;;;5035767;28;20595;-91
2023/12/31 09:20:39;;;;;;;0.77;0.73;;;9.90;99.90;;;;;;5036701;28;20473;-89
2023/12/31 09:23:05;;;;;;;1.80;0.80;;;9.90;99.90;;;;;;5053757;28;20732;-90
2023/12/31 09:25:31;;;;;;;0.83;0.83;;;9.90;99.90;;;;;;5052312;28;20226;-90
2023/12/31 09:27:57;;;;;;;1.90;1.80;;;9.90;99.90;;;;;;5035462;28;20218;-89
2023/12/31 09:30:23;;;;;;;0.80;0.80;;;9.80;99.90;;;;;;5035415;28;20222;-91
2023/12/31 09:32:49;;;;;;;0.40;0.40;;;9.80;99.90;;;;;;5035901;28;20186;-88
2023/12/31 09:35:15;;;;;;;9.53;1.30;;;9.80;99.90;;;;;;5036507;28;20252;-91
2023/12/31 09:37:40;;;;;;;3.90;0.77;;;9.70;99.90;;;;;;5035703;28;20221;-86
2023/12/31 09:40:07;;;;;;;0.50;0.50;;;9.70;99.90;;;;;;5053141;28;20263;-89
2023/12/31 09:42:51;;;;;;;1.60;0.40;;;9.70;99.90;;;;;;5035481;28;20213;-90
2023/12/31 09:45:23;;;;;;;0.63;0.63;;;9.60;99.90;;;;;;5053441;28;20220;-89
2023/12/31 09:47:50;;;;;;;0.30;0.30;;;9.50;99.90;;;;;;5035610;28;20174;-89
2023/12/31 09:50:19;;;;;;;0.43;0.43;;;9.50;99.90;;;;;;5035570;28;20689;-85
2023/12/31 09:52:50;;;;;;;0.23;0.23;;;9.60;99.90;;;;;;5052852;28;20685;-86
2023/12/31 09:55:20;;;;;;;1.13;1.13;;;9.50;99.90;;;;;;5034958;28;20248;-87
2023/12/31 09:57:47;;;;;;;0.53;0.40;;;9.40;99.90;;;;;;5052424;28;20218;-92
2023/12/31 10:00:14;;;;;;;0.20;0.20;;;9.50;99.90;;;;;;5052502;28;20666;-91
2023/12/31 10:02:40;;;;;;;0.43;0.43;;;9.50;99.90;;;;;;5036075;28;20189;-89
2023/12/31 10:05:06;;;;;;;0.20;0.20;;;9.60;99.90;;;;;;5035169;28;20221;-91
2023/12/31 10:07:32;;;;;;;0.40;0.40;;;9.50;99.90;;;;;;5035445;28;20214;-90
2023/12/31 10:09:59;;;;;;;1.30;1.17;;;9.70;99.90;;;;;;5018494;28;20218;-90
2023/12/31 10:12:27;;;;;;;0.67;0.67;;;9.70;99.90;;;;;;5034938;28;20218;-84
2023/12/31 10:14:53;;;;;;;1.40;0.30;;;9.80;99.90;;;;;;5035129;28;20206;-89
2023/12/31 10:17:20;;;;;;;0.70;0.70;;;9.80;99.90;;;;;;5035636;28;20201;-88
2023/12/31 10:19:46;;;;;;;0.67;0.43;;;9.70;99.90;;;;;;5034964;28;20221;-90
2023/12/31 10:22:15;;;;;;;4.60;0.97;;;9.80;99.90;;;;;;5035297;28;20226;-89
2023/12/31 10:24:43;;;;;;;0.83;0.83;;;9.70;99.90;;;;;;5035080;28;20214;-90
2023/12/31 10:27:11;;;;;;;0.30;0.30;;;9.80;99.90;;;;;;5034809;28;20312;-90
2023/12/31 10:29:38;;;;;;;1.03;0.93;;;9.80;99.90;;;;;;5036318;28;20174;-91
2023/12/31 10:32:06;;;;;;;0.37;0.37;;;9.80;99.90;;;;;;5035023;28;20214;-91
2023/12/31 10:34:33;;;;;;;0.60;0.60;;;9.80;99.90;;;;;;5034856;28;20229;-91
2023/12/31 10:37:05;;;;;;;1.10;0.80;;;9.80;99.90;;;;;;5035003;28;20217;-87
2023/12/31 10:39:38;;;;;;;0.33;0.33;;;9.70;99.90;;;;;;5034863;28;20257;-92
2023/12/31 10:42:06;;;;;;;0.50;0.50;;;9.90;99.90;;;;;;5053059;28;20243;-87
2023/12/31 10:44:34;;;;;;;0.17;0.17;;;9.80;99.90;;;;;;5035933;28;20221;-91
2023/12/31 10:47:06;;;;;;;0.33;0.33;;;9.80;99.90;;;;;;5034780;28;20222;-86
2023/12/31 10:49:34;;;;;;;0.50;0.50;;;9.80;99.90;;;;;;5034764;28;20301;-89
2023/12/31 10:52:02;;;;;;;2.97;1.27;;;9.80;99.90;;;;;;5052250;28;20210;-89
2023/12/31 10:54:44;;;;;;;1.33;0.87;;;9.60;99.90;;;;;;5034241;28;20214;-88
2023/12/31 10:57:10;;;;;;;1.43;1.33;;;9.60;99.90;;;;;;5034378;28;20292;-86
2023/12/31 10:59:38;;;;;;;0.60;0.60;;;9.70;99.90;;;;;;5034805;28;20182;-85
2023/12/31 11:02:04;;;;;;;1.30;1.20;;;9.40;99.90;;;;;;5034536;28;20645;-89
2023/12/31 11:04:31;;;;;;;0.87;0.80;;;9.20;99.90;;;;;;5052015;28;20249;-86
2023/12/31 11:07:03;;;;;;;1.33;0.73;;;9.30;99.90;;;;;;5036888;28;20259;-85
2023/12/31 11:09:29;;;;;;;0.60;0.60;;;9.30;99.90;;;;;;5055339;28;20248;-90
2023/12/31 11:11:55;;;;;;;0.83;0.83;;;9.00;99.90;;;;;;5055562;28;20194;-88
2023/12/31 11:14:28;;;;;;;0.63;0.63;;;8.90;99.90;;;;;;5037708;28;20213;-87
2023/12/31 11:17:41;;;;;;;1.20;1.10;;;8.90;99.90;;;;;;5037435;28;20303;-84
2023/12/31 11:20:30;;;;;;;0.93;0.93;;;8.80;99.90;;;;;;5042012;28;20611;-87
2023/12/31 11:23:23;;;;;;;0.30;0.30;;;8.80;99.90;;;;;;5038093;28;20297;-89
2023/12/31 11:25:49;;;;;;;0.57;0.57;;;9.00;99.90;;;;;;5055470;28;20279;-89
2023/12/31 11:28:19;;;;;;;0.33;0.33;;;8.80;99.90;;;;;;5022438;28;20214;-88
2023/12/31 11:30:53;;;;;;;0.40;0.40;;;9.00;99.90;;;;;;5058858;28;20217;-90
2023/12/31 11:33:21;;;;;;;0.83;0.63;;;8.80;99.90;;;;;;5074693;28;20209;-91
2023/12/31 11:35:50;;;;;;;0.27;0.27;;;8.80;99.90;;;;;;5038082;28;20251;-89
2023/12/31 11:38:16;;;;;;;2.43;0.50;;;8.80;99.90;;;;;;5056361;28;20225;-86
2023/12/31 11:40:42;;;;;;;2.97;0.70;;;8.80;99.90;;;;;;5054743;28;20234;-86
2023/12/31 11:43:13;;;;;;;0.30;0.30;;;8.90;99.90;;;;;;5037596;28;20237;-87
2023/12/31 11:45:43;;;;;;;0.63;0.63;;;9.00;99.90;;;;;;5037400;28;20222;-89
2023/12/31 11:48:26;;;;;;;0.47;0.47;;;9.00;99.90;;;;;;5037744;28;20233;-90
2023/12/31 11:51:01;;;;;;;0.40;0.40;;;9.00;99.90;;;;;;5037294;28;20188;-91
2023/12/31 11:53:30;;;;;;;0.93;0.93;;;9.20;99.90;;;;;;5055648;28;20270;-90
2023/12/31 11:55:59;;;;;;;0.40;0.40;;;9.50;99.90;;;;;;5037703;28;20320;-89
2023/12/31 11:58:29;;;;;;;0.30;0.30;;;9.40;99.90;;;;;;5020862;28;20224;-88
2023/12/31 12:00:55;;;;;;;12.63;0.70;;;9.60;99.90;;;;;;5053652;28;20631;-90
2023/12/31 12:03:23;;;;;;;0.20;0.20;;;9.40;99.90;;;;;;5053424;28;20248;-90
2023/12/31 12:05:52;;;;;;;0.23;0.23;;;9.60;99.90;;;;;;5037598;28;20273;-88
2023/12/31 12:08:19;;;;;;;1.57;0.90;;;9.70;99.90;;;;;;5038036;28;20179;-91
2023/12/31 12:10:45;;;;;;;0.30;0.30;;;9.60;99.90;;;;;;5054525;28;20217;-88
2023/12/31 12:13:12;;;;;;;1.17;1.07;;;9.80;99.90;;;;;;5053872;28;20702;-91
2023/12/31 12:15:38;;;;;;;1.10;1.00;;;9.80;99.90;;;;;;5054221;28;20230;-91
2023/12/31 12:18:25;;;;;;;0.40;0.40;;;9.80;99.90;;;;;;5036375;28;20205;-89
2023/12/31 12:20:51;;;;;;;0.53;0.53;;;10.00;99.90;;;;;;5036962;28;20177;-88
2023/12/31 12:23:21;;;;;;;2.57;1.10;;;9.90;99.90;;;;;;5053728;28;20190;-89
2023/12/31 12:25:47;;;;;;;0.63;0.63;;;10.00;99.90;;;;;;5036278;28;20225;-87
2023/12/31 12:28:14;;;;;;;0.83;0.70;;;10.10;99.90;;;;;;5036479;28;20210;-88
2023/12/31 12:30:43;;;;;;;0.87;0.87;;;10.10;99.90;;;;;;5036236;28;20214;-89
2023/12/31 12:33:12;;;;;;;0.40;0.40;;;10.00;99.90;;;;;;5036583;28;20233;-92
2023/12/31 12:35:39;;;;;;;0.70;0.70;;;9.80;99.90;;;;;;5036917;28;20206;-86
2023/12/31 12:38:13;;;;;;;0.57;0.57;;;9.70;99.90;;;;;;5054486;28;20222;-90
2023/12/31 12:40:39;;;;;;;0.50;0.50;;;9.60;99.90;;;;;;5020060;28;20237;-91
2023/12/31 12:43:12;;;;;;;0.37;0.37;;;9.60;99.90;;;;;;5036631;28;20245;-92
2023/12/31 12:45:38;;;;;;;0.80;0.50;;;9.60;99.90;;;;;;5054448;28;20225;-91
2023/12/31 12:48:05;;;;;;;4.67;1.10;;;9.40;99.90;;;;;;5020167;28;20505;-90
2023/12/31 12:50:31;;;;;;;0.20;0.20;;;9.50;99.90;;;;;;5037216;28;20268;-88
2023/12/31 12:52:57;;;;;;;0.40;0.40;;;9.40;99.90;;;;;;5036333;28;20703;-90
2023/12/31 12:55:23;;;;;;;0.27;0.27;;;9.50;99.90;;;;;;5026680;28;20225;-86
2023/12/31 12:57:51;;;;;;;0.60;0.50;;;9.50;99.90;;;;;;5036024;28;20611;-87